Time;durP1;ratioP1;P1;durP2;ratioP2;P2;SDS_P1;SDS_P2;PMS_P1;PMS_P2;Temp;Humidity;BMP_temperature;BMP_pressure;BME280_temperature;BME280_humidity;BME280_pressure;Samples;Min_cycle;Max_cycle;Signal;HPM_P1;HPM_P2
2022/08/15 00:01:25;;;;;;;2.53;1.50;;;27.10;42.60;;;;;;4931006;28;20042;-77
2022/08/15 00:03:54;;;;;;;2.95;1.48;;;27.10;43.10;;;;;;4943269;28;20050;-77
2022/08/15 00:06:45;;;;;;;2.45;1.58;;;27.10;43.20;;;;;;4923271;28;20047;-77
2022/08/15 00:09:17;;;;;;;2.55;1.60;;;27.00;43.30;;;;;;4943527;28;20790;-77
2022/08/15 00:11:46;;;;;;;3.47;1.70;;;27.00;43.60;;;;;;4942210;28;20022;-77
2022/08/15 00:14:20;;;;;;;2.90;1.40;;;27.10;43.60;;;;;;4933985;28;20101;-77
2022/08/15 00:16:48;;;;;;;2.33;1.48;;;27.00;43.90;;;;;;4940766;28;20030;-77
2022/08/15 00:19:24;;;;;;;3.03;1.50;;;27.00;43.60;;;;;;4949650;28;20288;-77
2022/08/15 00:21:54;;;;;;;1.80;1.50;;;27.00;44.50;;;;;;4920727;28;20031;-75
2022/08/15 00:24:24;;;;;;;3.20;1.40;;;27.00;44.10;;;;;;4946969;28;20023;-77
2022/08/15 00:26:53;;;;;;;3.00;1.60;;;27.00;44.10;;;;;;4955143;28;20031;-77
2022/08/15 00:29:21;;;;;;;2.38;1.60;;;27.00;44.30;;;;;;4940679;28;20038;-77
2022/08/15 00:31:47;;;;;;;2.17;1.33;;;27.00;44.30;;;;;;4931084;28;20031;-77
2022/08/15 00:34:17;;;;;;;2.53;1.52;;;27.00;44.20;;;;;;4952163;28;20046;-77
2022/08/15 00:36:46;;;;;;;2.30;1.50;;;27.00;44.50;;;;;;4955640;28;20146;-77
2022/08/15 00:39:12;;;;;;;3.17;1.60;;;27.00;44.50;;;;;;4955937;28;20030;-77
2022/08/15 00:41:41;;;;;;;1.80;1.42;;;27.00;44.60;;;;;;4960150;28;20066;-77
2022/08/15 00:44:10;;;;;;;2.42;1.40;;;27.00;44.60;;;;;;4960554;28;20045;-77
2022/08/15 00:46:38;;;;;;;2.58;1.50;;;27.00;45.00;;;;;;4932829;28;20063;-77
2022/08/15 00:49:06;;;;;;;2.57;1.60;;;27.00;44.90;;;;;;4949104;28;20023;-77
2022/08/15 00:51:54;;;;;;;2.97;1.92;;;26.90;45.00;;;;;;4948497;28;20324;-77
2022/08/15 00:54:25;;;;;;;2.33;1.60;;;26.90;46.70;;;;;;4953510;28;20118;-77
2022/08/15 00:56:59;;;;;;;2.72;1.60;;;26.90;45.30;;;;;;4945187;28;20057;-77
2022/08/15 00:59:29;;;;;;;2.35;1.65;;;26.80;46.20;;;;;;4962778;28;20046;-77
2022/08/15 01:01:58;;;;;;;2.30;1.30;;;26.80;45.90;;;;;;4955065;28;20407;-77
2022/08/15 01:04:24;;;;;;;1.73;1.38;;;26.70;45.90;;;;;;4949381;28;20081;-77
2022/08/15 01:06:51;;;;;;;2.10;1.50;;;26.70;45.90;;;;;;4929144;28;23836;-77
2022/08/15 01:09:17;;;;;;;2.47;1.40;;;26.60;46.00;;;;;;4953724;28;20018;-77
2022/08/15 01:11:54;;;;;;;3.72;1.58;;;26.60;46.10;;;;;;4952839;28;20109;-77
2022/08/15 01:14:22;;;;;;;2.30;1.30;;;26.50;47.10;;;;;;4937741;28;20015;-77
2022/08/15 01:16:50;;;;;;;2.55;1.42;;;26.50;46.20;;;;;;4933366;28;20065;-77
2022/08/15 01:19:31;;;;;;;1.70;1.27;;;26.40;46.30;;;;;;4949294;28;20038;-77
2022/08/15 01:22:10;;;;;;;1.92;1.60;;;26.40;46.80;;;;;;4920657;28;20150;-77
2022/08/15 01:24:51;;;;;;;1.92;1.30;;;26.30;47.70;;;;;;4947731;28;20041;-77
2022/08/15 01:27:18;;;;;;;2.43;1.40;;;26.30;47.60;;;;;;4931167;28;20037;-77
2022/08/15 01:29:44;;;;;;;1.73;1.13;;;26.30;46.70;;;;;;4938339;28;20488;-77
2022/08/15 01:32:10;;;;;;;2.42;1.40;;;26.20;46.70;;;;;;4940940;28;20026;-77
2022/08/15 01:34:35;;;;;;;2.50;1.30;;;26.20;46.70;;;;;;4940971;28;20049;-77
2022/08/15 01:37:02;;;;;;;1.40;1.20;;;26.20;46.70;;;;;;4942801;28;20346;-77
2022/08/15 01:39:46;;;;;;;3.47;1.23;;;26.10;46.70;;;;;;4939622;28;20117;-77
2022/08/15 01:42:41;;;;;;;2.00;1.35;;;26.10;47.80;;;;;;4941524;28;20405;-77
2022/08/15 01:45:29;;;;;;;1.83;1.15;;;26.10;47.70;;;;;;4952557;28;20046;-77
2022/08/15 01:48:08;;;;;;;1.90;1.17;;;26.00;47.70;;;;;;4942774;28;20031;-77
2022/08/15 01:50:40;;;;;;;1.53;1.07;;;26.00;47.20;;;;;;4946390;28;20026;-77
2022/08/15 01:53:13;;;;;;;3.33;1.30;;;26.00;47.00;;;;;;4954768;28;20647;-77
2022/08/15 01:56:01;;;;;;;2.20;1.30;;;25.90;47.30;;;;;;4952078;28;20034;-77
2022/08/15 01:58:28;;;;;;;1.65;1.33;;;25.90;47.40;;;;;;4976134;28;20557;-77
2022/08/15 02:00:57;;;;;;;1.92;1.25;;;25.90;47.00;;;;;;4949041;28;20272;-76
2022/08/15 02:03:33;;;;;;;2.23;1.37;;;25.90;47.20;;;;;;4936431;28;20035;-77
2022/08/15 02:06:09;;;;;;;1.40;1.30;;;25.90;47.20;;;;;;4942452;28;20035;-77
2022/08/15 02:08:36;;;;;;;1.83;1.30;;;25.90;47.80;;;;;;4966682;28;20563;-77
2022/08/15 02:11:09;;;;;;;2.00;1.30;;;25.80;47.20;;;;;;4959806;28;20059;-78
2022/08/15 02:13:36;;;;;;;2.10;1.50;;;25.80;47.50;;;;;;4958265;28;20081;-77
2022/08/15 02:16:02;;;;;;;2.87;1.37;;;25.80;47.30;;;;;;4933217;28;20459;-77
2022/08/15 02:18:28;;;;;;;1.90;1.30;;;25.80;47.40;;;;;;4936753;28;20037;-77
2022/08/15 02:20:54;;;;;;;1.73;1.23;;;25.80;47.40;;;;;;4943096;28;20256;-77
2022/08/15 02:23:21;;;;;;;2.15;1.30;;;25.70;47.50;;;;;;4957392;28;20117;-77
2022/08/15 02:25:52;;;;;;;1.50;1.23;;;25.70;47.50;;;;;;4945593;28;20035;-77
2022/08/15 02:28:19;;;;;;;1.30;1.10;;;25.70;48.00;;;;;;4951371;28;20021;-77
2022/08/15 02:30:46;;;;;;;3.45;1.42;;;25.70;47.70;;;;;;4970298;28;20050;-77
2022/08/15 02:33:12;;;;;;;2.10;1.30;;;25.70;48.10;;;;;;4938392;28;20019;-77
2022/08/15 02:35:38;;;;;;;2.30;1.30;;;25.70;47.90;;;;;;4954200;28;20030;-77
2022/08/15 02:38:05;;;;;;;1.70;1.20;;;25.70;48.00;;;;;;4945057;28;20027;-77
2022/08/15 02:40:33;;;;;;;2.28;1.30;;;25.70;47.90;;;;;;4940008;28;20031;-77
2022/08/15 02:43:10;;;;;;;1.58;1.10;;;25.60;48.00;;;;;;4946622;28;20191;-78
2022/08/15 02:45:37;;;;;;;2.00;1.30;;;25.70;48.80;;;;;;4957998;28;20019;-77
2022/08/15 02:48:08;;;;;;;1.92;1.20;;;25.60;48.10;;;;;;4945893;28;20394;-77
2022/08/15 02:50:35;;;;;;;1.30;1.20;;;25.60;48.50;;;;;;4952006;28;20023;-77
2022/08/15 02:53:15;;;;;;;2.00;1.40;;;25.60;48.10;;;;;;4948293;28;20045;-77
2022/08/15 02:55:46;;;;;;;2.42;1.20;;;25.60;48.60;;;;;;4940942;28;20015;-77
2022/08/15 02:58:12;;;;;;;1.98;1.40;;;25.60;48.30;;;;;;4955257;28;20074;-77
2022/08/15 03:00:41;;;;;;;2.17;1.20;;;25.60;48.30;;;;;;4954698;28;20049;-77
2022/08/15 03:03:11;;;;;;;2.20;1.30;;;25.60;48.50;;;;;;4920094;28;20063;-77
2022/08/15 03:05:40;;;;;;;1.88;1.20;;;25.50;48.70;;;;;;4929924;28;20027;-77
2022/08/15 03:08:06;;;;;;;1.45;1.20;;;25.50;48.60;;;;;;4936092;28;20062;-77
2022/08/15 03:10:34;;;;;;;2.30;1.40;;;25.50;48.70;;;;;;4950049;28;20027;-77
2022/08/15 03:13:04;;;;;;;1.92;1.10;;;25.50;48.70;;;;;;4929643;28;20479;-77
2022/08/15 03:15:41;;;;;;;2.73;1.23;;;25.40;48.90;;;;;;4940896;28;20055;-77
2022/08/15 03:18:06;;;;;;;2.10;1.30;;;25.40;49.50;;;;;;4947163;28;20034;-77
2022/08/15 03:20:32;;;;;;;3.67;1.50;;;25.40;49.00;;;;;;4934796;28;20515;-77
2022/08/15 03:22:59;;;;;;;2.43;1.10;;;25.40;49.10;;;;;;4954049;28;20562;-77
2022/08/15 03:25:25;;;;;;;2.08;1.40;;;25.40;49.30;;;;;;4943636;28;20435;-77
2022/08/15 03:27:53;;;;;;;2.47;1.30;;;25.30;49.30;;;;;;4947276;28;20046;-77
2022/08/15 03:30:19;;;;;;;1.42;1.23;;;25.30;49.50;;;;;;4944546;28;20324;-77
2022/08/15 03:32:47;;;;;;;1.90;1.50;;;25.30;49.40;;;;;;4932698;28;20476;-77
2022/08/15 03:35:14;;;;;;;1.40;1.23;;;25.30;49.70;;;;;;4926468;28;20058;-77
2022/08/15 03:37:40;;;;;;;1.95;1.40;;;25.30;49.60;;;;;;4971133;28;20121;-77
2022/08/15 03:40:07;;;;;;;1.60;1.30;;;25.30;49.70;;;;;;4939413;28;20459;-77
2022/08/15 03:42:33;;;;;;;1.45;1.30;;;25.30;49.80;;;;;;4956402;28;20035;-77
2022/08/15 03:45:11;;;;;;;2.58;1.38;;;25.30;49.90;;;;;;4954838;28;20463;-77
2022/08/15 03:47:37;;;;;;;2.17;1.30;;;25.30;51.00;;;;;;4945942;28;20584;-77
2022/08/15 03:50:05;;;;;;;2.05;1.40;;;25.20;50.00;;;;;;4949542;28;20411;-77
2022/08/15 03:52:30;;;;;;;2.03;1.30;;;25.20;50.10;;;;;;4937484;28;20030;-77
2022/08/15 03:55:03;;;;;;;2.28;1.20;;;25.20;50.10;;;;;;4932381;28;20362;-77
2022/08/15 03:57:29;;;;;;;1.63;1.30;;;25.20;50.40;;;;;;4943135;28;20542;-77
2022/08/15 03:59:55;;;;;;;1.67;1.20;;;25.20;50.20;;;;;;4944843;28;20332;-77
2022/08/15 04:02:24;;;;;;;1.73;1.30;;;25.20;50.20;;;;;;4956450;28;20130;-77
2022/08/15 04:04:50;;;;;;;1.80;1.30;;;25.20;50.60;;;;;;4957963;28;20132;-77
2022/08/15 04:07:16;;;;;;;1.77;1.30;;;25.10;50.30;;;;;;4924511;28;20114;-77
2022/08/15 04:09:43;;;;;;;3.05;1.40;;;25.10;50.30;;;;;;4948943;28;20466;-77
2022/08/15 04:12:09;;;;;;;2.27;1.10;;;25.10;50.40;;;;;;4959303;28;20015;-77
2022/08/15 04:14:35;;;;;;;1.85;1.23;;;25.00;50.40;;;;;;4938359;28;20033;-77
2022/08/15 04:17:01;;;;;;;2.33;1.30;;;25.00;50.60;;;;;;4976606;28;20030;-77
2022/08/15 04:19:27;;;;;;;2.40;1.38;;;25.00;50.70;;;;;;4971343;28;20042;-77
2022/08/15 04:21:53;;;;;;;1.83;1.10;;;25.00;50.70;;;;;;4933443;28;20230;-77
2022/08/15 04:24:19;;;;;;;1.52;1.10;;;25.00;50.80;;;;;;4972914;28;20030;-77
2022/08/15 04:26:45;;;;;;;1.73;1.40;;;25.00;50.80;;;;;;4947227;28;20351;-77
2022/08/15 04:29:10;;;;;;;2.37;1.40;;;24.90;50.90;;;;;;4944769;28;20737;-77
2022/08/15 04:31:37;;;;;;;1.80;1.33;;;25.00;51.00;;;;;;4946748;28;20027;-77
2022/08/15 04:34:03;;;;;;;2.65;1.20;;;25.00;51.10;;;;;;4941620;28;20034;-77
2022/08/15 04:36:30;;;;;;;1.63;1.20;;;24.90;51.20;;;;;;4943022;28;20027;-77
2022/08/15 04:38:55;;;;;;;1.63;1.30;;;24.90;51.40;;;;;;4954521;28;20030;-77
2022/08/15 04:41:21;;;;;;;2.28;1.30;;;24.90;51.40;;;;;;4960066;28;20482;-77
2022/08/15 04:43:47;;;;;;;3.13;1.40;;;24.90;51.50;;;;;;4933414;28;20337;-78
2022/08/15 04:46:13;;;;;;;2.80;1.38;;;24.90;51.60;;;;;;4953738;28;20512;-77
2022/08/15 04:48:39;;;;;;;2.08;1.50;;;24.80;51.70;;;;;;4930091;28;20745;-77
2022/08/15 04:51:05;;;;;;;2.53;1.40;;;24.80;52.00;;;;;;4959411;28;20022;-77
2022/08/15 04:53:34;;;;;;;2.00;1.38;;;24.80;52.00;;;;;;4934806;28;20445;-77
2022/08/15 04:56:02;;;;;;;2.67;1.50;;;24.70;52.20;;;;;;4949058;28;20081;-77
2022/08/15 04:58:28;;;;;;;2.65;1.77;;;24.80;52.40;;;;;;4941432;28;20377;-77
2022/08/15 05:00:59;;;;;;;2.40;1.50;;;24.70;52.40;;;;;;4967622;28;20223;-77
2022/08/15 05:03:25;;;;;;;2.72;1.58;;;24.70;52.50;;;;;;4916505;28;20561;-77
2022/08/15 05:05:55;;;;;;;3.33;1.40;;;24.70;52.60;;;;;;4941256;28;20366;-76
2022/08/15 05:08:25;;;;;;;3.25;1.60;;;24.70;53.00;;;;;;4915049;28;20669;-77
2022/08/15 05:11:10;;;;;;;2.20;1.40;;;24.70;53.00;;;;;;4947264;28;20030;-77
2022/08/15 05:13:38;;;;;;;1.83;1.30;;;24.70;53.60;;;;;;4925611;28;20461;-77
2022/08/15 05:16:07;;;;;;;2.65;1.50;;;24.70;53.20;;;;;;4953370;28;20031;-77
2022/08/15 05:18:39;;;;;;;1.77;1.45;;;24.70;53.30;;;;;;4944230;28;20779;-77
2022/08/15 05:21:06;;;;;;;1.67;1.50;;;24.70;53.40;;;;;;4958824;28;20041;-77
2022/08/15 05:23:32;;;;;;;3.22;1.83;;;24.70;53.40;;;;;;4927834;28;20506;-77
2022/08/15 05:26:00;;;;;;;2.07;1.40;;;24.70;53.60;;;;;;4948329;28;20396;-77
2022/08/15 05:28:25;;;;;;;2.65;1.52;;;24.70;53.60;;;;;;4946710;28;20109;-77
2022/08/15 05:30:53;;;;;;;2.33;1.50;;;24.70;53.70;;;;;;4938160;28;20300;-77
2022/08/15 05:33:25;;;;;;;1.92;1.30;;;24.70;53.90;;;;;;4949530;28;20027;-77
2022/08/15 05:35:54;;;;;;;2.90;1.40;;;24.70;54.10;;;;;;4958488;28;20245;-77
2022/08/15 05:38:31;;;;;;;1.92;1.45;;;24.70;54.10;;;;;;4921813;28;20054;-77
2022/08/15 05:40:57;;;;;;;2.08;1.50;;;24.70;54.70;;;;;;4940034;28;20423;-78
2022/08/15 05:43:49;;;;;;;1.70;1.40;;;24.70;54.00;;;;;;4944229;28;20039;-77
2022/08/15 05:46:31;;;;;;;2.53;1.60;;;24.70;55.10;;;;;;4935523;28;20492;-77
2022/08/15 05:49:08;;;;;;;2.20;1.67;;;24.70;54.20;;;;;;4933141;28;20724;-77
2022/08/15 05:51:47;;;;;;;2.38;1.45;;;24.70;55.30;;;;;;4953855;28;20024;-77
2022/08/15 05:54:36;;;;;;;2.00;1.50;;;24.70;55.40;;;;;;4931645;28;20037;-77
2022/08/15 05:57:32;;;;;;;5.40;1.70;;;24.70;55.60;;;;;;4940261;28;20500;-77
2022/08/15 06:00:05;;;;;;;2.50;1.40;;;24.70;55.40;;;;;;4927602;28;20082;-77
2022/08/15 06:02:36;;;;;;;2.33;1.42;;;24.70;54.90;;;;;;4926679;28;20078;-77
2022/08/15 06:05:13;;;;;;;2.80;1.48;;;24.70;54.60;;;;;;4957431;28;20121;-78
2022/08/15 06:07:43;;;;;;;3.10;1.50;;;24.70;55.00;;;;;;4940578;28;20395;-77
2022/08/15 06:10:25;;;;;;;2.47;1.73;;;24.70;55.10;;;;;;4929260;28;20112;-77
2022/08/15 06:13:03;;;;;;;2.20;1.73;;;24.70;56.20;;;;;;4961566;28;20046;-77
2022/08/15 06:15:58;;;;;;;2.80;1.63;;;24.70;55.40;;;;;;4935778;28;20130;-77
2022/08/15 06:18:27;;;;;;;2.50;1.50;;;24.70;56.30;;;;;;4922374;28;20174;-77
2022/08/15 06:21:05;;;;;;;3.40;1.40;;;24.70;55.40;;;;;;4941771;28;20490;-77
2022/08/15 06:23:37;;;;;;;2.85;1.45;;;24.70;56.30;;;;;;4944063;28;20139;-78
2022/08/15 06:26:31;;;;;;;2.80;1.55;;;24.70;55.30;;;;;;4915402;28;20059;-77
2022/08/15 06:28:57;;;;;;;2.70;1.52;;;24.80;55.90;;;;;;4953831;28;20022;-77
2022/08/15 06:31:31;;;;;;;1.95;1.40;;;24.80;55.50;;;;;;4940548;28;20039;-77
2022/08/15 06:34:07;;;;;;;3.30;1.90;;;24.80;56.30;;;;;;4948155;28;20031;-77
2022/08/15 06:36:40;;;;;;;3.55;1.80;;;24.80;56.00;;;;;;4918741;28;21285;-78
2022/08/15 06:39:33;;;;;;;2.70;1.80;;;24.80;55.60;;;;;;4946879;28;20046;-78
2022/08/15 06:42:03;;;;;;;2.13;1.60;;;24.80;56.90;;;;;;4911698;28;20027;-78
2022/08/15 06:44:29;;;;;;;2.53;1.73;;;24.80;56.00;;;;;;4953900;28;20285;-78
2022/08/15 06:47:09;;;;;;;1.73;1.53;;;24.80;55.90;;;;;;4944789;28;20456;-77
2022/08/15 06:49:41;;;;;;;3.00;1.65;;;24.80;56.20;;;;;;4928740;28;20261;-78
2022/08/15 06:52:08;;;;;;;4.45;1.90;;;24.80;56.40;;;;;;4921758;28;20031;-77
2022/08/15 06:54:35;;;;;;;2.13;1.52;;;24.80;56.40;;;;;;4938271;28;20081;-78
2022/08/15 06:57:15;;;;;;;2.50;1.70;;;24.90;56.50;;;;;;4906631;28;20651;-77
2022/08/15 07:00:03;;;;;;;3.03;1.80;;;24.90;57.00;;;;;;4920593;28;20071;-77
2022/08/15 07:02:39;;;;;;;2.80;1.90;;;25.00;57.00;;;;;;4942233;28;20053;-77
2022/08/15 07:05:07;;;;;;;2.78;1.70;;;25.00;56.90;;;;;;4928436;28;20094;-77
2022/08/15 07:07:50;;;;;;;2.67;1.70;;;25.00;56.80;;;;;;4940691;28;20023;-77
2022/08/15 07:10:25;;;;;;;2.80;1.80;;;25.10;57.20;;;;;;4953962;28;20262;-77
2022/08/15 07:12:53;;;;;;;1.87;1.57;;;25.10;57.60;;;;;;4917840;28;20031;-77
2022/08/15 07:15:40;;;;;;;3.05;1.73;;;25.20;57.00;;;;;;4948848;28;20031;-78
2022/08/15 07:18:28;;;;;;;2.97;1.80;;;25.20;57.70;;;;;;4939423;28;20024;-77
2022/08/15 07:21:03;;;;;;;2.75;1.75;;;25.30;58.20;;;;;;4930090;28;22138;-77
2022/08/15 07:23:31;;;;;;;2.38;1.90;;;25.40;58.00;;;;;;4942870;28;20027;-77
2022/08/15 07:26:07;;;;;;;2.93;1.90;;;25.50;57.50;;;;;;4939894;28;20130;-77
2022/08/15 07:28:35;;;;;;;1.83;1.50;;;25.50;57.70;;;;;;4908173;28;20041;-77
2022/08/15 07:31:26;;;;;;;3.17;2.10;;;25.50;58.00;;;;;;4941174;28;20019;-77
2022/08/15 07:33:56;;;;;;;2.80;1.83;;;25.60;57.80;;;;;;4960589;28;20204;-76
2022/08/15 07:36:29;;;;;;;2.25;1.75;;;25.60;57.10;;;;;;4941374;28;20054;-78
2022/08/15 07:38:55;;;;;;;2.83;1.83;;;25.60;57.40;;;;;;4953787;28;20031;-77
2022/08/15 07:41:30;;;;;;;3.20;1.85;;;25.60;57.10;;;;;;4955143;28;20010;-76
2022/08/15 07:44:17;;;;;;;3.13;2.00;;;25.60;57.60;;;;;;4931954;28;20058;-77
2022/08/15 07:47:00;;;;;;;3.03;1.77;;;25.60;57.90;;;;;;4928386;28;20723;-77
2022/08/15 07:49:32;;;;;;;2.97;1.70;;;25.70;57.90;;;;;;4926468;28;20284;-77
2022/08/15 07:52:21;;;;;;;2.80;2.00;;;25.70;57.20;;;;;;4930461;28;20031;-77
2022/08/15 07:54:49;;;;;;;3.05;1.77;;;25.70;57.80;;;;;;4936365;28;20776;-77
2022/08/15 07:57:21;;;;;;;2.72;1.98;;;25.80;57.10;;;;;;4954419;28;20038;-78
2022/08/15 08:00:11;;;;;;;2.70;1.90;;;25.80;57.60;;;;;;4915082;28;20440;-78
2022/08/15 08:03:15;;;;;;;4.85;2.00;;;25.80;57.70;;;;;;4940159;28;22328;-77
2022/08/15 08:06:06;;;;;;;4.00;1.97;;;25.80;57.70;;;;;;4920308;28;20031;-78
2022/08/15 08:08:59;;;;;;;2.33;1.70;;;25.90;57.60;;;;;;4930844;28;20236;-77
2022/08/15 08:11:48;;;;;;;2.03;1.75;;;25.80;57.70;;;;;;4906357;28;20069;-78
2022/08/15 08:14:23;;;;;;;3.28;1.90;;;25.90;57.70;;;;;;4946354;28;20081;-77
2022/08/15 08:17:06;;;;;;;2.75;2.03;;;25.90;57.50;;;;;;4956637;28;20054;-77
2022/08/15 08:19:45;;;;;;;2.97;2.00;;;25.90;57.60;;;;;;4920472;28;20228;-77
2022/08/15 08:22:22;;;;;;;2.97;1.90;;;25.90;57.20;;;;;;4953670;28;20062;-77
2022/08/15 08:24:59;;;;;;;2.95;2.15;;;25.90;57.50;;;;;;4960534;28;20110;-78
2022/08/15 08:27:24;;;;;;;2.45;1.98;;;26.00;57.70;;;;;;4946270;28;20049;-77
2022/08/15 08:30:03;;;;;;;2.93;2.00;;;26.00;57.40;;;;;;4921370;28;20035;-77
2022/08/15 08:32:56;;;;;;;3.15;2.03;;;26.10;57.80;;;;;;4918257;28;20455;-77
2022/08/15 08:35:47;;;;;;;2.15;1.80;;;26.20;58.10;;;;;;4949891;28;20102;-76
2022/08/15 08:38:42;;;;;;;3.58;1.83;;;26.20;57.90;;;;;;4938142;28;20038;-77
2022/08/15 08:41:35;;;;;;;2.97;1.90;;;26.30;57.90;;;;;;4942367;28;20034;-77
2022/08/15 08:44:06;;;;;;;3.40;2.28;;;26.40;57.50;;;;;;4963299;28;20327;-78
2022/08/15 08:47:01;;;;;;;2.60;2.10;;;26.50;57.30;;;;;;4932881;28;20118;-78
2022/08/15 08:49:38;;;;;;;3.20;2.45;;;26.50;57.80;;;;;;4936434;28;20085;-77
2022/08/15 08:52:24;;;;;;;3.60;2.28;;;26.60;57.40;;;;;;4949929;28;20015;-80
2022/08/15 08:55:25;;;;;;;2.80;2.07;;;26.70;57.70;;;;;;4970850;28;20039;-77
2022/08/15 08:57:58;;;;;;;2.20;1.95;;;26.80;57.90;;;;;;4946195;28;20035;-80
2022/08/15 09:00:32;;;;;;;3.63;2.13;;;26.90;57.80;;;;;;4920268;28;20043;-78
2022/08/15 09:03:17;;;;;;;3.70;2.25;;;27.00;57.80;;;;;;4960085;28;20030;-77
2022/08/15 09:05:52;;;;;;;3.67;2.13;;;27.20;57.80;;;;;;4937644;28;20516;-77
2022/08/15 09:08:24;;;;;;;4.10;2.70;;;27.40;57.70;;;;;;4957448;28;20415;-77
2022/08/15 09:10:54;;;;;;;3.40;2.17;;;27.50;57.40;;;;;;4948799;28;20371;-78
2022/08/15 09:13:34;;;;;;;3.30;2.50;;;27.70;57.50;;;;;;4929392;28;20030;-77
2022/08/15 09:16:35;;;;;;;3.10;2.42;;;27.80;57.70;;;;;;4934594;28;20034;-77
2022/08/15 09:19:11;;;;;;;3.45;2.47;;;28.00;57.50;;;;;;4928367;28;20051;-77
2022/08/15 09:21:38;;;;;;;4.93;2.30;;;28.20;57.40;;;;;;4943418;28;20328;-77
2022/08/15 09:24:04;;;;;;;3.15;2.30;;;28.40;57.20;;;;;;4947491;28;20027;-77
2022/08/15 09:26:51;;;;;;;2.85;2.50;;;28.50;56.90;;;;;;4960472;28;20125;-77
2022/08/15 09:29:28;;;;;;;3.88;2.35;;;28.70;56.60;;;;;;4942805;28;20443;-77
2022/08/15 09:32:20;;;;;;;3.45;2.50;;;28.90;56.40;;;;;;4932004;28;20114;-78
2022/08/15 09:35:04;;;;;;;3.80;2.63;;;29.10;56.40;;;;;;4932267;28;20026;-77
2022/08/15 09:37:38;;;;;;;3.50;2.35;;;29.20;55.50;;;;;;4958823;28;20027;-77
2022/08/15 09:40:25;;;;;;;3.40;2.70;;;29.40;55.50;;;;;;4927799;28;20447;-77
2022/08/15 09:42:59;;;;;;;3.95;2.60;;;29.50;54.50;;;;;;4965587;28;20113;-77
2022/08/15 09:45:43;;;;;;;3.53;2.30;;;29.50;54.60;;;;;;4947180;28;20026;-77
2022/08/15 09:48:18;;;;;;;4.03;2.80;;;29.50;54.40;;;;;;4910806;28;20057;-77
2022/08/15 09:51:19;;;;;;;4.18;2.58;;;29.50;54.00;;;;;;4946933;28;20026;-77
2022/08/15 09:53:56;;;;;;;2.72;2.33;;;29.60;53.70;;;;;;4963357;28;20071;-77
2022/08/15 09:56:25;;;;;;;3.53;2.72;;;29.60;53.70;;;;;;4936118;28;20039;-78
2022/08/15 09:58:57;;;;;;;3.83;2.72;;;29.50;53.40;;;;;;4962274;28;20023;-77
2022/08/15 10:01:28;;;;;;;3.30;2.50;;;29.50;53.20;;;;;;4953928;28;20033;-77
2022/08/15 10:04:02;;;;;;;3.75;2.67;;;29.50;53.10;;;;;;4904361;28;20054;-77
2022/08/15 10:06:47;;;;;;;2.97;2.45;;;29.50;53.10;;;;;;4938466;28;20086;-78
2022/08/15 10:09:31;;;;;;;3.08;2.40;;;29.50;53.30;;;;;;4950917;28;20565;-77
2022/08/15 10:12:06;;;;;;;4.25;2.55;;;29.50;53.30;;;;;;4943255;28;20031;-77
2022/08/15 10:14:47;;;;;;;2.70;2.30;;;29.60;53.30;;;;;;4951303;28;20444;-78
2022/08/15 10:17:37;;;;;;;3.92;2.65;;;29.70;53.00;;;;;;4935585;28;20579;-77
2022/08/15 10:20:17;;;;;;;5.25;2.40;;;29.80;53.00;;;;;;4926844;28;20102;-77
2022/08/15 10:22:50;;;;;;;3.30;2.47;;;29.90;52.80;;;;;;4925610;28;20035;-78
2022/08/15 10:25:22;;;;;;;4.15;2.53;;;30.10;53.10;;;;;;4951261;28;20246;-78
2022/08/15 10:28:11;;;;;;;3.00;2.30;;;30.20;53.00;;;;;;4938140;28;20132;-78
2022/08/15 10:31:05;;;;;;;2.40;2.20;;;30.50;53.70;;;;;;4973887;28;20039;-79
2022/08/15 10:33:31;;;;;;;3.65;2.38;;;30.70;53.00;;;;;;4938336;28;20050;-77
2022/08/15 10:36:13;;;;;;;2.67;2.10;;;31.10;54.20;;;;;;4927882;28;20101;-77
2022/08/15 10:39:10;;;;;;;3.47;2.40;;;31.50;53.40;;;;;;4939044;28;20030;-77
2022/08/15 10:42:14;;;;;;;2.50;2.22;;;32.00;51.90;;;;;;4955557;28;20035;-77
2022/08/15 10:44:49;;;;;;;3.53;2.40;;;32.30;51.20;;;;;;4963457;28;20027;-77
2022/08/15 10:47:40;;;;;;;2.45;2.13;;;32.60;51.40;;;;;;4939301;28;20027;-77
2022/08/15 10:50:14;;;;;;;2.70;2.33;;;32.80;50.10;;;;;;4926929;28;20037;-76
2022/08/15 10:53:18;;;;;;;3.40;2.13;;;33.00;50.40;;;;;;4948111;28;20400;-79
2022/08/15 10:55:44;;;;;;;2.72;2.30;;;33.20;48.90;;;;;;4948449;28;20027;-77
2022/08/15 10:58:20;;;;;;;2.50;2.30;;;33.40;49.70;;;;;;4943434;28;20023;-78
2022/08/15 11:00:51;;;;;;;2.28;1.90;;;33.60;49.30;;;;;;4950165;28;20459;-79
2022/08/15 11:03:24;;;;;;;2.38;2.17;;;33.70;48.80;;;;;;4941333;28;20023;-79
2022/08/15 11:05:55;;;;;;;2.40;2.20;;;33.90;48.70;;;;;;4913026;28;20027;-76
2022/08/15 11:08:23;;;;;;;3.63;2.30;;;34.00;47.40;;;;;;4943670;28;20106;-76
2022/08/15 11:10:49;;;;;;;2.90;2.27;;;34.00;47.20;;;;;;4941531;28;20445;-78
2022/08/15 11:13:21;;;;;;;2.47;2.17;;;34.00;46.60;;;;;;4948861;28;20030;-77
2022/08/15 11:15:58;;;;;;;3.13;2.25;;;34.00;46.30;;;;;;4941283;28;20019;-77
2022/08/15 11:18:34;;;;;;;3.08;2.20;;;34.00;45.80;;;;;;4937056;28;20492;-76
2022/08/15 11:21:40;;;;;;;2.40;2.20;;;33.90;45.90;;;;;;4934218;28;20058;-77
2022/08/15 11:24:08;;;;;;;2.30;2.10;;;34.00;46.40;;;;;;4933919;28;20039;-77
2022/08/15 11:26:38;;;;;;;2.72;2.25;;;34.10;46.20;;;;;;4939904;28;20051;-76
2022/08/15 11:29:08;;;;;;;2.55;2.13;;;34.10;45.30;;;;;;4951530;28;20444;-76
2022/08/15 11:31:50;;;;;;;2.90;2.20;;;34.00;45.10;;;;;;4954168;28;20034;-78
2022/08/15 11:34:23;;;;;;;2.67;2.30;;;33.90;44.60;;;;;;4935690;28;20719;-78
2022/08/15 11:36:52;;;;;;;3.20;2.23;;;33.90;44.70;;;;;;4950391;28;20085;-77
2022/08/15 11:39:20;;;;;;;2.40;2.20;;;33.80;45.00;;;;;;4932452;28;20043;-77
2022/08/15 11:41:55;;;;;;;3.67;2.20;;;33.90;44.70;;;;;;4949302;28;20057;-79
2022/08/15 11:44:26;;;;;;;2.85;2.42;;;33.80;44.50;;;;;;4937547;28;20246;-77
2022/08/15 11:46:51;;;;;;;2.53;2.33;;;33.80;44.30;;;;;;4950467;28;20026;-78
2022/08/15 11:49:41;;;;;;;2.60;2.20;;;33.80;44.20;;;;;;4951202;28;20463;-76
2022/08/15 11:52:08;;;;;;;5.38;2.40;;;33.70;43.40;;;;;;4935468;28;20030;-77
2022/08/15 11:54:35;;;;;;;4.40;2.50;;;33.70;43.90;;;;;;4954857;28;20085;-76
2022/08/15 11:57:06;;;;;;;2.90;2.30;;;33.60;43.40;;;;;;4935561;28;20520;-77
2022/08/15 11:59:55;;;;;;;3.33;2.22;;;33.40;43.10;;;;;;4949925;28;20406;-78
2022/08/15 12:02:21;;;;;;;2.30;2.10;;;33.20;43.00;;;;;;4940233;28;20058;-76
2022/08/15 12:04:49;;;;;;;3.47;2.20;;;33.10;43.20;;;;;;4946367;28;20422;-77
2022/08/15 12:07:21;;;;;;;2.50;2.10;;;33.00;43.30;;;;;;4955788;28;20026;-77
2022/08/15 12:09:59;;;;;;;2.70;2.10;;;32.80;43.20;;;;;;4929942;28;20713;-77
2022/08/15 12:12:36;;;;;;;3.13;2.30;;;32.70;43.30;;;;;;4925628;28;22057;-76
2022/08/15 12:15:16;;;;;;;4.78;2.50;;;32.50;43.40;;;;;;4942317;28;20444;-78
2022/08/15 12:18:08;;;;;;;4.38;2.60;;;32.40;43.70;;;;;;4946435;28;20251;-79
2022/08/15 12:20:48;;;;;;;2.67;2.35;;;32.40;44.40;;;;;;4957870;28;20026;-80
2022/08/15 12:23:29;;;;;;;2.90;2.53;;;32.20;43.70;;;;;;4935393;28;20375;-78
2022/08/15 12:26:16;;;;;;;3.15;2.65;;;32.00;43.90;;;;;;4955527;28;20066;-79
2022/08/15 12:28:43;;;;;;;3.22;2.45;;;31.80;43.50;;;;;;4963583;28;20033;-79
2022/08/15 12:31:28;;;;;;;4.32;2.83;;;31.50;43.60;;;;;;4945514;28;20024;-79
2022/08/15 12:34:05;;;;;;;2.80;2.60;;;31.40;44.00;;;;;;4936126;28;20026;-78
2022/08/15 12:36:31;;;;;;;5.03;2.80;;;31.10;44.20;;;;;;4961703;28;20057;-77
2022/08/15 12:38:57;;;;;;;3.35;2.40;;;31.00;44.00;;;;;;4933840;28;20039;-77
2022/08/15 12:41:25;;;;;;;2.83;2.60;;;30.90;44.10;;;;;;4933586;28;20027;-79
2022/08/15 12:43:51;;;;;;;3.33;2.70;;;30.80;44.30;;;;;;4944788;28;20038;-77
2022/08/15 12:46:18;;;;;;;3.28;2.80;;;30.70;44.90;;;;;;4938198;28;20289;-76
2022/08/15 12:48:47;;;;;;;3.22;2.92;;;30.60;45.50;;;;;;4930310;28;20053;-76
2022/08/15 12:51:14;;;;;;;3.83;2.65;;;30.60;45.70;;;;;;4948123;28;20065;-77
2022/08/15 12:53:40;;;;;;;2.80;2.50;;;30.60;46.00;;;;;;4955578;28;20035;-77
2022/08/15 12:56:07;;;;;;;2.73;2.53;;;30.70;46.30;;;;;;4893621;28;20164;-77
2022/08/15 12:58:35;;;;;;;4.72;3.20;;;30.90;46.80;;;;;;4936219;28;20008;-77
2022/08/15 13:01:01;;;;;;;2.85;2.60;;;31.00;46.60;;;;;;4955483;28;20031;-76
2022/08/15 13:03:29;;;;;;;3.30;2.47;;;31.10;46.50;;;;;;4936306;28;20894;-77
2022/08/15 13:06:24;;;;;;;3.13;2.67;;;31.30;46.60;;;;;;4947093;28;20095;-77
2022/08/15 13:08:50;;;;;;;4.07;2.60;;;31.50;46.50;;;;;;4956055;28;20042;-77
2022/08/15 13:11:16;;;;;;;3.08;2.42;;;31.60;46.10;;;;;;4934969;28;20026;-76
2022/08/15 13:13:41;;;;;;;3.67;2.90;;;31.60;45.80;;;;;;4941831;28;20164;-76
2022/08/15 13:16:09;;;;;;;4.00;2.58;;;31.70;45.50;;;;;;4948681;28;20045;-76
2022/08/15 13:18:36;;;;;;;3.08;2.70;;;31.60;45.40;;;;;;4936433;28;20365;-77
2022/08/15 13:23:51;;;;;;;3.77;2.70;;;31.60;45.50;;;;;;4972884;28;20031;-76
2022/08/15 13:26:19;;;;;;;2.90;2.60;;;31.60;45.50;;;;;;4914226;28;20163;-76